createdAt,value
2022-10-23T13:26:06.593Z,101470.88
2022-10-23T13:28:45.220Z,101470.47
2022-10-23T13:31:15.016Z,101467.28
2022-10-23T13:33:53.359Z,101474.94
2022-10-23T13:36:24.089Z,101458.34
2022-10-23T13:39:14.693Z,101467.28
2022-10-23T13:41:47.158Z,101461.97
2022-10-23T13:44:17.277Z,101441.38
2022-10-23T13:46:45.307Z,101428.38
2022-10-23T13:49:13.991Z,101430.78
2022-10-23T13:51:45.167Z,101436.47
2022-10-23T13:54:19.658Z,101434.44
2022-10-23T13:56:47.517Z,101447.34
2022-10-23T13:59:15.441Z,101437.25
2022-10-23T14:01:43.943Z,101438.88
2022-10-23T14:04:12.076Z,101430.81
2022-10-23T14:06:39.946Z,101428.78
2022-10-23T14:09:10.885Z,101437.31
2022-10-23T14:11:38.353Z,101437.25
2022-10-23T14:14:05.470Z,101441.75
2022-10-23T14:16:32.558Z,101421.50
2022-10-23T14:18:59.739Z,101434.91
2022-10-23T14:21:26.782Z,101450.28
2022-10-23T14:23:54.850Z,101447.03
2022-10-23T14:26:25.528Z,101460.34
2022-10-23T14:28:54.278Z,101434.41
2022-10-23T14:31:22.201Z,101427.53
2022-10-23T14:34:01.024Z,101414.50
2022-10-23T14:36:38.425Z,101429.88
2022-10-23T14:39:17.259Z,101432.31
2022-10-23T14:41:44.338Z,101446.00
2022-10-23T14:47:20.029Z,101430.06
2022-10-23T14:49:52.201Z,101438.53
2022-10-23T14:52:20.879Z,101412.50
2022-10-23T14:54:57.535Z,101418.88
2022-10-23T14:57:29.783Z,101416.78
2022-10-23T14:59:59.097Z,101434.16
2022-10-23T15:02:36.336Z,101441.88
2022-10-23T15:05:06.383Z,101442.25
2022-10-23T15:07:33.713Z,101434.19
2022-10-23T15:10:03.261Z,101437.00
2022-10-23T15:12:31.202Z,101444.63
2022-10-23T15:14:58.204Z,101449.50
2022-10-23T15:17:25.315Z,101442.22
2022-10-23T15:19:52.368Z,101444.66
2022-10-23T15:22:20.081Z,101432.88
2022-10-23T15:24:48.158Z,101433.69
2022-10-23T15:27:15.319Z,101448.66
2022-10-23T15:29:42.522Z,101427.22
2022-10-23T15:32:10.279Z,101432.44
2022-10-23T15:34:38.006Z,101427.63
2022-10-23T15:37:05.223Z,101431.66
2022-10-23T15:39:36.070Z,101417.84
2022-10-23T15:42:07.220Z,101430.81
2022-10-23T15:44:34.838Z,101401.63
2022-10-23T15:47:01.998Z,101428.78
2022-10-23T15:49:32.938Z,101424.28
2022-10-23T15:52:00.068Z,101413.72
2022-10-23T15:54:31.906Z,101434.31
2022-10-23T15:57:00.574Z,101407.56
2022-10-23T15:59:28.652Z,101428.97
2022-10-23T16:01:56.186Z,101415.66
2022-10-23T16:04:23.350Z,101416.84
2022-10-23T16:06:50.780Z,101417.25
2022-10-23T16:09:17.844Z,101418.06
2022-10-23T16:11:44.965Z,101428.16
2022-10-23T16:14:17.734Z,101427.78
2022-10-23T16:16:44.890Z,101417.63
2022-10-23T16:19:12.972Z,101429.78
2022-10-23T16:21:41.441Z,101431.44
2022-10-23T16:24:09.195Z,101422.09
2022-10-23T16:26:37.147Z,101433.06
2022-10-23T16:29:07.086Z,101432.63
2022-10-23T16:31:34.594Z,101432.22
2022-10-23T16:34:03.409Z,101446.38
2022-10-23T16:36:31.246Z,101441.09
2022-10-23T16:38:58.358Z,101444.78
2022-10-23T16:41:25.495Z,101440.31
2022-10-23T16:43:52.500Z,101438.34
2022-10-23T16:46:21.575Z,101436.31
2022-10-23T16:48:50.555Z,101437.94
2022-10-23T16:51:20.371Z,101429.44
2022-10-23T16:53:48.316Z,101439.47
2022-10-23T16:56:17.241Z,101445.19
2022-10-23T16:58:44.693Z,101431.38
2022-10-23T17:01:15.737Z,101452.41
2022-10-23T17:03:48.513Z,101441.88
2022-10-23T17:06:18.761Z,101460.41
2022-10-23T17:08:46.381Z,101454.78
2022-10-23T17:11:15.789Z,101461.66
2022-10-23T17:13:58.519Z,101451.09
2022-10-23T17:16:34.747Z,101462.03
2022-10-23T17:19:03.125Z,101461.97
2022-10-23T17:21:36.413Z,101469.59
2022-10-23T17:24:04.494Z,101471.56
2022-10-23T17:26:31.918Z,101467.88
2022-10-23T17:29:01.757Z,101475.66
2022-10-23T17:31:32.412Z,101466.72
2022-10-23T17:34:04.248Z,101479.28
2022-10-23T17:36:35.095Z,101500.78
2022-10-23T17:39:02.326Z,101498.38
2022-10-23T17:41:30.580Z,101494.25
2022-10-23T17:43:59.745Z,101494.25
2022-10-23T17:46:29.530Z,101517.72
2022-10-23T17:51:31.365Z,101529.78
2022-10-23T17:54:01.771Z,101531.34
2022-10-23T17:56:31.518Z,101525.22
2022-10-23T17:59:10.107Z,101529.66
2022-10-23T18:01:40.123Z,101517.88
2022-10-23T18:04:08.641Z,101533.59
2022-10-23T18:06:41.884Z,101513.69
2022-10-23T18:09:09.375Z,101523.66
2022-10-23T18:11:42.430Z,101544.66
2022-10-23T18:14:11.370Z,101534.84
2022-10-23T18:16:40.684Z,101530.72
2022-10-23T18:19:08.255Z,101538.38
2022-10-23T18:21:36.727Z,101540.28
2022-10-23T18:24:04.728Z,101540.28
2022-10-23T18:26:35.369Z,101523.66
2022-10-23T18:29:05.185Z,101534.97
2022-10-23T18:31:32.605Z,101531.72
2022-10-23T18:34:04.378Z,101526.53
2022-10-23T18:36:34.166Z,101530.53
2022-10-23T18:39:01.723Z,101515.06
2022-10-23T18:41:34.096Z,101516.69
2022-10-23T18:44:01.802Z,101513.38
2022-10-23T18:46:29.291Z,101522.28
2022-10-23T18:48:56.639Z,101536.44
2022-10-23T18:51:27.566Z,101531.66
2022-10-23T18:53:54.739Z,101531.59
2022-10-23T18:56:24.218Z,101527.97
2022-10-23T18:58:53.421Z,101534.84
2022-10-23T19:01:22.102Z,101527.13
2022-10-23T19:03:50.970Z,101520.97
2022-10-23T19:06:18.084Z,101515.25
2022-10-23T19:08:46.323Z,101514.47
2022-10-23T19:11:15.945Z,101539.09
2022-10-23T19:13:43.421Z,101532.59
2022-10-23T19:16:19.273Z,101539.97
2022-10-23T19:18:51.764Z,101547.22
2022-10-23T19:21:22.186Z,101535.84
2022-10-23T19:23:52.838Z,101536.72
2022-10-23T19:26:24.206Z,101546.91
2022-10-23T19:31:30.866Z,101541.66
2022-10-23T19:34:04.983Z,101518.94
2022-10-23T19:36:32.457Z,101535.22
2022-10-23T19:39:05.277Z,101527.13
2022-10-23T19:41:34.486Z,101510.16
2022-10-23T19:44:02.426Z,101511.00
2022-10-23T19:46:29.648Z,101519.81
2022-10-23T19:48:56.852Z,101509.19
2022-10-23T19:51:25.284Z,101510.44
2022-10-23T19:53:57.081Z,101493.09
2022-10-23T19:56:25.936Z,101481.72
2022-10-23T19:58:54.463Z,101477.72
2022-10-23T20:01:24.919Z,101483.41
2022-10-23T20:06:42.316Z,101469.53
2022-10-23T20:09:10.175Z,101458.34
2022-10-23T20:11:39.845Z,101460.78
2022-10-23T20:14:08.592Z,101448.59
2022-10-23T20:16:42.044Z,101434.03
2022-10-23T20:21:51.939Z,101460.66
2022-10-23T20:24:20.551Z,101460.09
2022-10-23T20:26:53.976Z,101439.28
2022-10-23T20:29:22.417Z,101457.53
2022-10-23T20:31:52.141Z,101461.56
2022-10-23T20:34:20.962Z,101457.94
2022-10-23T20:37:07.652Z,101436.41
2022-10-23T20:39:36.931Z,101478.56
2022-10-23T20:42:05.937Z,101492.28
2022-10-23T20:44:46.448Z,101461.56
2022-10-23T20:47:17.261Z,101449.38
2022-10-23T20:49:48.175Z,101474.97
2022-10-23T20:52:23.764Z,101490.47
2022-10-23T20:54:55.182Z,101461.50
2022-10-23T20:57:37.604Z,101476.19
2022-10-23T21:00:37.625Z,101475.47
2022-10-23T21:03:06.973Z,101480.78
2022-10-23T21:09:03.695Z,101500.84
2022-10-23T21:11:43.165Z,101458.56
2022-10-23T21:14:31.475Z,101503.25
2022-10-23T21:25:53.670Z,101512.00
2022-10-23T21:37:27.293Z,101502.63
2022-10-23T21:39:56.471Z,101504.03
2022-10-23T21:42:51.886Z,101505.44
2022-10-23T21:45:19.901Z,101506.81
2022-10-23T21:47:48.455Z,101528.78
2022-10-23T22:13:06.459Z,101499.06
2022-10-23T22:27:01.586Z,101476.34
